Time;durP1;ratioP1;P1;durP2;ratioP2;P2;SDS_P1;SDS_P2;PMS_P1;PMS_P2;Temp;Humidity;BMP_temperature;BMP_pressure;BME280_temperature;BME280_humidity;BME280_pressure;Samples;Min_cycle;Max_cycle;Signal;HPM_P1;HPM_P2
2023/09/21 00:01:34;;;;;;;2.10;1.90;;;;;;;16.83;99.83;100120.88;4980398;28;20710;-50
2023/09/21 00:04:01;;;;;;;5.50;2.10;;;;;;;16.79;99.67;100124.75;4975164;28;20241;-49
2023/09/21 00:06:26;;;;;;;2.70;1.98;;;;;;;16.78;99.76;100120.34;4969569;28;20190;-51
2023/09/21 00:08:53;;;;;;;5.90;1.88;;;;;;;16.79;99.99;100122.94;4968838;28;20609;-48
2023/09/21 00:11:20;;;;;;;5.43;2.17;;;;;;;16.74;99.63;100126.94;4965692;28;20617;-47
2023/09/21 00:13:46;;;;;;;4.55;1.90;;;;;;;16.69;99.96;100117.34;4971017;28;20583;-49
2023/09/21 00:16:11;;;;;;;6.07;1.80;;;;;;;16.71;99.97;100119.09;4966574;28;20174;-48
2023/09/21 00:18:44;;;;;;;3.83;2.28;;;;;;;16.74;99.95;100116.13;4971915;28;20299;-50
2023/09/21 00:21:12;;;;;;;3.75;1.85;;;;;;;16.71;99.95;100116.38;4966974;28;20214;-49
2023/09/21 00:23:38;;;;;;;3.97;1.67;;;;;;;16.72;99.87;100113.53;4973193;28;20193;-49
2023/09/21 00:26:04;;;;;;;4.03;1.92;;;;;;;16.80;99.67;100121.13;4974871;28;20177;-49
2023/09/21 00:28:30;;;;;;;2.78;1.73;;;;;;;16.73;99.72;100117.97;4966994;28;20191;-49
2023/09/21 00:31:02;;;;;;;2.72;1.83;;;;;;;16.68;99.84;100099.41;4968353;28;20203;-49
2023/09/21 00:33:29;;;;;;;4.82;1.92;;;;;;;16.72;99.63;100110.84;4970600;28;20269;-48
2023/09/21 00:35:58;;;;;;;2.72;1.73;;;;;;;16.71;99.52;100108.25;4975282;28;20550;-48
2023/09/21 00:38:24;;;;;;;2.10;1.65;;;;;;;16.74;99.20;100100.75;4990833;28;20179;-50
2023/09/21 00:40:55;;;;;;;4.88;1.83;;;;;;;16.77;98.75;100097.84;4971180;28;20269;-49
2023/09/21 00:43:24;;;;;;;1.92;1.80;;;;;;;16.83;98.46;100096.53;4973131;28;20715;-49
2023/09/21 00:45:57;;;;;;;4.93;1.85;;;;;;;16.86;97.81;100086.34;4973267;28;20216;-49
2023/09/21 00:48:26;;;;;;;2.53;1.70;;;;;;;16.86;97.32;100090.91;4967473;28;20264;-49
2023/09/21 00:50:54;;;;;;;3.50;1.40;;;;;;;16.84;97.15;100080.19;4967611;28;20178;-49
2023/09/21 00:53:22;;;;;;;3.42;1.88;;;;;;;16.82;97.01;100079.44;4969681;28;20606;-49
2023/09/21 00:55:53;;;;;;;2.38;1.60;;;;;;;16.87;96.37;100088.06;4970932;28;20185;-48
2023/09/21 00:58:22;;;;;;;3.67;1.77;;;;;;;16.85;96.34;100084.59;4984542;28;20201;-48
2023/09/21 01:00:50;;;;;;;2.03;1.75;;;;;;;16.81;96.15;100077.69;4973335;28;20593;-49
2023/09/21 01:03:17;;;;;;;1.88;1.50;;;;;;;16.78;95.98;100091.44;4971874;28;20789;-48
2023/09/21 01:05:45;;;;;;;2.72;1.80;;;;;;;16.72;96.14;100078.38;4969674;28;20237;-49
2023/09/21 01:08:17;;;;;;;2.78;1.70;;;;;;;16.75;96.14;100094.38;4970977;28;20190;-49
2023/09/21 01:10:48;;;;;;;1.83;1.55;;;;;;;16.65;96.39;100085.22;4968743;28;20199;-49
2023/09/21 01:13:15;;;;;;;2.80;1.60;;;;;;;16.61;96.81;100081.03;4969841;28;20720;-49
2023/09/21 01:15:46;;;;;;;3.03;1.80;;;;;;;16.66;96.79;100086.94;4986230;28;20273;-48
2023/09/21 01:18:12;;;;;;;2.38;1.73;;;;;;;16.59;96.96;100080.28;4970088;28;20206;-49
2023/09/21 01:20:38;;;;;;;2.05;1.60;;;;;;;16.63;96.56;100076.38;4964906;28;20182;-48
2023/09/21 01:23:14;;;;;;;7.10;2.10;;;;;;;16.60;96.51;100074.75;4969017;28;20195;-48
2023/09/21 01:25:46;;;;;;;2.47;1.90;;;;;;;16.54;96.64;100074.38;4984309;28;20183;-49
2023/09/21 01:28:18;;;;;;;2.58;1.65;;;;;;;16.53;97.04;100070.81;4972225;28;20543;-48
2023/09/21 01:30:44;;;;;;;2.50;1.60;;;;;;;16.55;97.28;100074.25;4970725;28;20273;-48
2023/09/21 01:33:15;;;;;;;2.38;1.70;;;;;;;16.56;97.21;100075.13;4969620;28;20190;-49
2023/09/21 01:35:43;;;;;;;3.53;2.03;;;;;;;16.49;97.26;100074.72;4976014;28;20174;-50
2023/09/21 01:38:09;;;;;;;2.92;1.70;;;;;;;16.52;97.11;100074.47;4972542;28;20190;-49
2023/09/21 01:40:37;;;;;;;4.72;1.95;;;;;;;16.46;97.25;100067.69;4974408;28;20577;-49
2023/09/21 01:43:10;;;;;;;3.03;2.00;;;;;;;16.37;97.79;100068.38;4964954;28;20175;-49
2023/09/21 01:45:39;;;;;;;3.83;2.08;;;;;;;16.39;98.00;100069.13;4972726;28;20602;-49
2023/09/21 01:48:09;;;;;;;5.47;2.28;;;;;;;16.36;98.26;100063.94;4963699;28;20238;-48
2023/09/21 01:50:44;;;;;;;3.78;1.77;;;;;;;16.31;98.47;100063.44;4969635;28;20178;-50
2023/09/21 01:53:10;;;;;;;2.58;1.80;;;;;;;16.28;98.83;100066.34;4968713;28;20655;-49
2023/09/21 01:55:38;;;;;;;2.58;1.90;;;;;;;16.25;99.18;100066.59;4970072;28;20187;-49
2023/09/21 01:58:04;;;;;;;4.03;1.98;;;;;;;16.26;99.33;100069.16;4952472;28;20174;-49
2023/09/21 02:00:34;;;;;;;3.25;1.80;;;;;;;16.21;99.58;100059.69;4973607;28;20297;-50
2023/09/21 02:03:03;;;;;;;2.10;1.80;;;;;;;16.15;100.00;100065.53;4973979;28;20209;-48
2023/09/21 02:05:28;;;;;;;2.83;1.63;;;;;;;16.14;100.00;100050.31;4975817;28;20206;-49
2023/09/21 02:07:55;;;;;;;4.75;1.80;;;;;;;16.14;100.00;100047.63;4967125;28;20189;-49
2023/09/21 02:10:20;;;;;;;4.38;1.80;;;;;;;16.12;100.00;100047.72;4968323;28;20221;-49
2023/09/21 02:12:55;;;;;;;4.43;2.22;;;;;;;16.08;100.00;100037.25;4971758;28;20187;-50
2023/09/21 02:15:21;;;;;;;1.92;1.63;;;;;;;16.04;100.00;100039.31;4973472;28;20185;-48
2023/09/21 02:17:46;;;;;;;5.82;2.22;;;;;;;16.04;100.00;100040.16;4970764;28;20715;-51
2023/09/21 02:20:16;;;;;;;2.85;1.95;;;;;;;16.08;100.00;100035.41;4970675;28;20232;-49
2023/09/21 02:22:47;;;;;;;2.05;1.92;;;;;;;16.03;100.00;100033.03;4972289;28;20202;-49
2023/09/21 02:25:13;;;;;;;4.03;2.35;;;;;;;16.02;100.00;100025.91;4973082;28;20216;-50
2023/09/21 02:27:40;;;;;;;3.60;1.90;;;;;;;15.97;100.00;100028.09;4975181;28;20178;-49
2023/09/21 02:30:14;;;;;;;3.08;2.00;;;;;;;15.98;100.00;100020.84;4967643;28;20187;-49
2023/09/21 02:32:45;;;;;;;6.35;1.75;;;;;;;15.99;100.00;100015.34;4975943;28;20986;-48
2023/09/21 02:35:15;;;;;;;2.60;1.85;;;;;;;15.91;100.00;100012.31;4972795;28;20650;-49
2023/09/21 02:37:48;;;;;;;1.70;1.60;;;;;;;15.85;100.00;100018.16;4968275;28;20178;-50
2023/09/21 02:40:14;;;;;;;1.80;1.70;;;;;;;15.86;100.00;100011.81;4971207;28;20209;-49
2023/09/21 02:42:44;;;;;;;3.17;1.73;;;;;;;15.90;100.00;100005.22;4969857;28;20297;-48
2023/09/21 02:45:11;;;;;;;4.40;1.95;;;;;;;15.91;100.00;100000.66;4968194;28;20763;-49
2023/09/21 02:47:37;;;;;;;4.07;2.05;;;;;;;15.85;100.00;100001.97;4977206;28;20242;-50
2023/09/21 02:50:11;;;;;;;5.45;2.30;;;;;;;15.82;100.00;100008.47;4968002;28;20175;-49
2023/09/21 02:52:37;;;;;;;2.47;1.65;;;;;;;15.89;100.00;99998.06;4964717;28;20244;-49
2023/09/21 02:55:02;;;;;;;3.40;1.77;;;;;;;15.84;100.00;99994.84;4970158;28;20309;-48
2023/09/21 02:57:29;;;;;;;6.70;1.90;;;;;;;15.84;100.00;99987.59;4966579;28;20206;-48
2023/09/21 02:59:55;;;;;;;2.35;1.70;;;;;;;15.80;100.00;100001.44;4972210;28;20241;-48
2023/09/21 03:02:20;;;;;;;5.07;1.90;;;;;;;15.84;100.00;99995.72;4968328;28;20189;-50
2023/09/21 03:04:50;;;;;;;2.13;1.85;;;;;;;15.74;100.00;99983.88;4965853;28;20183;-49
2023/09/21 03:07:16;;;;;;;3.80;1.70;;;;;;;15.79;100.00;99970.03;4974717;28;20198;-48
2023/09/21 03:09:42;;;;;;;1.92;1.77;;;;;;;15.76;100.00;99976.50;4968997;28;20171;-49
2023/09/21 03:12:08;;;;;;;3.38;1.88;;;;;;;15.74;100.00;99972.19;4968094;28;20276;-49
2023/09/21 03:14:33;;;;;;;2.88;2.20;;;;;;;15.71;100.00;99975.97;4965024;28;20691;-48
2023/09/21 03:16:59;;;;;;;2.83;1.90;;;;;;;15.71;100.00;99975.09;4971218;28;20245;-49
2023/09/21 03:19:25;;;;;;;2.28;1.80;;;;;;;15.66;100.00;99968.19;4967734;28;20201;-48
2023/09/21 03:21:50;;;;;;;4.28;1.90;;;;;;;15.68;100.00;99970.78;4974957;28;20648;-49
2023/09/21 03:24:17;;;;;;;2.35;1.70;;;;;;;15.64;100.00;99970.13;4970114;28;20175;-48
2023/09/21 03:26:44;;;;;;;3.25;1.90;;;;;;;15.58;100.00;99967.88;4975850;28;20308;-49
2023/09/21 03:29:12;;;;;;;3.03;1.83;;;;;;;15.58;100.00;99956.22;4969667;28;20660;-50
2023/09/21 03:31:38;;;;;;;2.50;2.03;;;;;;;15.54;100.00;99955.56;4971649;28;20250;-49
2023/09/21 03:34:05;;;;;;;1.92;1.65;;;;;;;15.51;100.00;99950.41;4965528;28;20186;-51
2023/09/21 03:36:35;;;;;;;2.75;1.88;;;;;;;15.55;100.00;99972.66;4973002;28;20555;-49
2023/09/21 03:39:08;;;;;;;4.13;2.17;;;;;;;15.56;100.00;99964.41;4967982;28;20250;-49
2023/09/21 03:41:34;;;;;;;3.30;2.22;;;;;;;15.57;100.00;99955.38;4970163;28;20197;-49
2023/09/21 03:43:59;;;;;;;5.60;2.08;;;;;;;15.56;100.00;99952.75;4975602;28;20185;-48
2023/09/21 03:46:25;;;;;;;3.53;2.00;;;;;;;15.53;100.00;99958.41;4971220;28;20192;-50
2023/09/21 03:48:50;;;;;;;2.53;2.08;;;;;;;15.51;100.00;99961.19;4971497;28;20186;-49
2023/09/21 03:51:16;;;;;;;5.03;2.05;;;;;;;15.48;100.00;99944.34;4956760;28;20202;-48
2023/09/21 03:53:42;;;;;;;3.67;2.20;;;;;;;15.49;100.00;99951.50;4969104;28;20186;-49
2023/09/21 03:56:07;;;;;;;4.30;1.88;;;;;;;15.50;100.00;99948.66;4964688;28;20194;-49
2023/09/21 03:58:34;;;;;;;3.50;2.00;;;;;;;15.52;100.00;99952.13;4974229;28;20224;-48
2023/09/21 04:01:07;;;;;;;9.77;2.28;;;;;;;15.49;100.00;99946.94;4966574;28;20267;-49
2023/09/21 04:03:32;;;;;;;3.22;2.55;;;;;;;15.51;100.00;99931.50;4957849;28;20674;-51
2023/09/21 04:06:06;;;;;;;2.45;2.20;;;;;;;15.53;100.00;99940.34;4966835;28;20194;-51
2023/09/21 04:08:32;;;;;;;4.60;2.67;;;;;;;15.58;100.00;99938.16;4969113;28;20177;-48
2023/09/21 04:11:00;;;;;;;3.05;2.38;;;;;;;15.54;100.00;99920.47;4964732;28;20274;-49
2023/09/21 04:13:25;;;;;;;5.15;2.65;;;;;;;15.52;100.00;99935.06;4961333;28;20190;-48
2023/09/21 04:15:51;;;;;;;4.10;2.88;;;;;;;15.55;100.00;99933.00;4968117;28;20178;-49
2023/09/21 04:18:16;;;;;;;4.93;2.90;;;;;;;15.51;100.00;99923.41;4963131;28;20225;-48
2023/09/21 04:20:44;;;;;;;3.67;2.45;;;;;;;15.52;100.00;99930.50;4965774;28;20209;-49
2023/09/21 04:23:10;;;;;;;4.93;2.35;;;;;;;15.48;100.00;99923.66;4965414;28;20193;-48
2023/09/21 04:25:36;;;;;;;2.85;2.58;;;;;;;15.44;100.00;99916.75;4972953;28;20201;-49
2023/09/21 04:28:03;;;;;;;3.95;2.33;;;;;;;15.54;100.00;99917.78;4969609;28;20174;-50
2023/09/21 04:30:29;;;;;;;5.13;2.53;;;;;;;15.53;100.00;99912.50;4966974;28;20186;-48
2023/09/21 04:32:57;;;;;;;4.05;2.40;;;;;;;15.47;100.00;99916.50;4970319;28;20241;-49
2023/09/21 04:35:23;;;;;;;3.60;2.30;;;;;;;15.49;100.00;99916.41;4966641;28;20187;-49
2023/09/21 04:37:53;;;;;;;2.88;1.88;;;;;;;15.49;100.00;99911.00;4965930;28;20179;-49
2023/09/21 04:40:19;;;;;;;3.40;2.38;;;;;;;15.47;100.00;99900.31;4965745;28;20222;-48
2023/09/21 04:42:46;;;;;;;2.80;1.92;;;;;;;15.48;100.00;99907.44;4965234;28;20197;-49
2023/09/21 04:45:18;;;;;;;6.97;2.08;;;;;;;15.48;100.00;99906.56;4969204;28;20179;-48
2023/09/21 04:47:49;;;;;;;3.20;1.70;;;;;;;15.53;100.00;99905.25;4985097;28;20648;-50
2023/09/21 04:50:19;;;;;;;3.70;2.00;;;;;;;15.53;100.00;99907.97;4963163;28;20182;-48
2023/09/21 04:52:48;;;;;;;2.78;1.77;;;;;;;15.57;100.00;99903.22;4963398;28;20225;-49
2023/09/21 04:55:16;;;;;;;2.22;1.73;;;;;;;15.49;100.00;99909.16;4972523;28;20251;-48
2023/09/21 04:57:42;;;;;;;2.05;1.70;;;;;;;15.49;100.00;99909.16;4978373;28;20301;-49
2023/09/21 05:00:10;;;;;;;2.30;1.77;;;;;;;15.45;100.00;99907.66;4984176;28;20218;-49
2023/09/21 05:02:36;;;;;;;1.75;1.65;;;;;;;15.45;100.00;99905.81;4966530;28;20197;-49
2023/09/21 05:05:02;;;;;;;3.28;1.85;;;;;;;15.46;100.00;99895.91;4972971;28;20186;-49
2023/09/21 05:07:29;;;;;;;2.00;1.80;;;;;;;15.48;100.00;99895.75;4967341;28;20329;-48
2023/09/21 05:09:55;;;;;;;2.50;2.03;;;;;;;15.46;100.00;99890.50;4968853;28;20181;-49
2023/09/21 05:12:21;;;;;;;2.80;1.98;;;;;;;15.52;100.00;99883.75;4963108;28;20219;-49
2023/09/21 05:14:47;;;;;;;4.60;1.90;;;;;;;15.55;100.00;99889.81;4966348;28;20645;-49
2023/09/21 05:17:16;;;;;;;2.83;2.25;;;;;;;15.62;100.00;99884.81;4967953;28;20191;-49
2023/09/21 05:19:41;;;;;;;2.13;1.92;;;;;;;15.63;99.65;99892.81;4974262;28;20286;-49
2023/09/21 05:22:08;;;;;;;2.53;1.92;;;;;;;15.72;99.14;99890.41;4973632;28;20238;-49
2023/09/21 05:24:36;;;;;;;2.53;1.77;;;;;;;15.72;98.91;99893.13;4971613;28;20191;-49
2023/09/21 05:27:02;;;;;;;1.75;1.65;;;;;;;15.77;98.41;99886.41;4968423;28;20175;-49
2023/09/21 05:29:28;;;;;;;4.28;1.90;;;;;;;15.76;98.09;99887.38;4974522;28;20183;-48
2023/09/21 05:31:53;;;;;;;4.43;1.90;;;;;;;15.79;97.91;99886.28;4969522;28;20225;-48
2023/09/21 05:34:19;;;;;;;3.72;1.75;;;;;;;15.79;97.78;99883.59;4973598;28;20189;-48
2023/09/21 05:36:46;;;;;;;2.72;1.60;;;;;;;15.80;97.71;99886.16;4966350;28;20188;-49
2023/09/21 05:39:19;;;;;;;2.28;2.05;;;;;;;15.84;97.34;99874.16;4971420;28;20215;-50
2023/09/21 05:41:48;;;;;;;6.50;1.95;;;;;;;15.83;97.24;99879.66;4964098;28;20190;-48
2023/09/21 05:44:14;;;;;;;3.63;2.05;;;;;;;15.85;97.13;99880.41;4964620;28;20548;-51
2023/09/21 05:46:40;;;;;;;2.17;1.98;;;;;;;15.91;96.80;99879.94;4964226;28;20177;-50
2023/09/21 05:49:09;;;;;;;4.70;1.80;;;;;;;15.93;96.55;99878.00;4959947;28;20182;-49
2023/09/21 05:51:39;;;;;;;5.75;2.25;;;;;;;15.96;96.19;99882.31;4964371;28;20224;-51
2023/09/21 05:54:05;;;;;;;1.80;1.70;;;;;;;16.09;95.92;99879.53;4961128;28;20190;-50
2023/09/21 05:56:32;;;;;;;2.80;1.80;;;;;;;16.24;95.00;99868.41;5009011;23;20244;-43
2023/09/21 05:59:00;;;;;;;5.43;2.20;;;;;;;16.33;94.32;99874.94;4985373;28;20663;-44
2023/09/21 06:01:31;;;;;;;3.38;2.08;;;;;;;16.65;93.49;99864.31;4988324;28;20217;-45
2023/09/21 06:03:59;;;;;;;3.47;2.00;;;;;;;16.89;91.85;99871.50;4992039;28;20683;-42
2023/09/21 06:06:28;;;;;;;2.90;1.80;;;;;;;16.96;90.73;99858.34;4984674;28;20204;-43
2023/09/21 06:08:56;;;;;;;3.72;2.00;;;;;;;17.09;89.50;99853.66;4987172;28;20236;-44
2023/09/21 06:11:21;;;;;;;5.53;2.20;;;;;;;17.32;88.75;99857.19;4986218;28;20201;-44
2023/09/21 06:13:47;;;;;;;3.60;1.73;;;;;;;17.25;87.67;99851.44;4994081;28;20176;-42
2023/09/21 06:16:13;;;;;;;3.85;2.03;;;;;;;17.08;87.71;99860.06;4986228;28;20186;-44
2023/09/21 06:18:39;;;;;;;2.08;1.80;;;;;;;17.18;87.40;99852.03;4992982;28;20193;-43
2023/09/21 06:21:06;;;;;;;3.63;1.73;;;;;;;17.45;86.81;99836.25;4984513;28;20675;-44
2023/09/21 06:23:32;;;;;;;2.70;1.80;;;;;;;17.52;86.00;99830.31;4990452;28;20200;-43
2023/09/21 06:25:57;;;;;;;1.80;1.70;;;;;;;17.32;85.48;99829.25;4988294;28;20185;-44
2023/09/21 06:28:23;;;;;;;3.03;1.90;;;;;;;17.56;85.15;99829.94;4991748;28;20170;-43
2023/09/21 06:30:51;;;;;;;3.88;2.20;;;;;;;17.69;84.33;99822.50;4986403;28;20257;-44
2023/09/21 06:33:18;;;;;;;2.92;1.80;;;;;;;17.87;84.05;99821.97;4985145;28;20372;-45
2023/09/21 06:35:44;;;;;;;3.42;1.70;;;;;;;18.09;83.44;99818.28;4993931;28;20219;-44
2023/09/21 06:38:09;;;;;;;3.25;1.80;;;;;;;18.10;82.36;99810.03;4993622;28;20871;-44
2023/09/21 06:40:36;;;;;;;4.95;2.00;;;;;;;17.75;82.18;99809.41;4987435;28;20284;-45
2023/09/21 06:43:06;;;;;;;2.42;2.15;;;;;;;18.03;82.15;99811.53;4982385;28;20628;-44
2023/09/21 06:45:32;;;;;;;4.00;1.73;;;;;;;18.38;81.32;99804.06;4988078;28;20546;-45
2023/09/21 06:48:01;;;;;;;1.85;1.70;;;;;;;17.98;80.59;99805.66;4989573;28;20596;-47
2023/09/21 06:50:27;;;;;;;2.90;1.83;;;;;;;17.75;81.20;99806.69;4985670;28;20180;-46
2023/09/21 06:52:53;;;;;;;2.20;1.98;;;;;;;17.63;81.75;99814.03;4982926;28;20244;-44
2023/09/21 06:55:18;;;;;;;2.20;2.00;;;;;;;17.48;82.04;99818.88;4987200;28;20264;-44
2023/09/21 06:57:44;;;;;;;3.70;2.03;;;;;;;18.06;81.86;99822.13;4988177;28;20205;-46
2023/09/21 07:00:10;;;;;;;2.55;1.60;;;;;;;18.14;81.21;99813.31;4985776;28;20233;-44
2023/09/21 07:02:36;;;;;;;2.72;1.90;;;;;;;18.52;80.32;99822.69;4986369;28;20205;-44
2023/09/21 07:05:02;;;;;;;3.28;1.83;;;;;;;18.72;79.10;99802.81;4986666;28;20572;-46
2023/09/21 07:07:29;;;;;;;3.97;2.03;;;;;;;19.20;78.27;99784.09;4990541;28;20177;-45
2023/09/21 07:09:54;;;;;;;4.03;2.10;;;;;;;19.12;77.38;99782.09;4988780;28;20177;-45
2023/09/21 07:12:22;;;;;;;3.65;2.03;;;;;;;19.25;76.11;99774.56;4987494;28;20252;-44
2023/09/21 07:14:49;;;;;;;2.05;1.85;;;;;;;19.40;75.54;99775.00;4984662;28;20197;-46
2023/09/21 07:17:15;;;;;;;6.88;2.00;;;;;;;19.47;74.43;99765.28;4981554;28;20198;-45
2023/09/21 07:19:41;;;;;;;2.28;1.63;;;;;;;19.67;74.69;99768.88;4995995;28;20553;-45
2023/09/21 07:22:07;;;;;;;1.80;1.70;;;;;;;19.43;74.14;99765.72;4970212;28;20272;-47
2023/09/21 07:24:33;;;;;;;2.90;2.13;;;;;;;19.48;73.99;99777.88;4991292;28;20181;-45
2023/09/21 07:27:00;;;;;;;3.90;1.88;;;;;;;19.49;74.13;99774.16;4983467;28;20174;-44
2023/09/21 07:29:26;;;;;;;2.30;1.65;;;;;;;19.95;73.37;99772.59;4987785;28;20695;-43
2023/09/21 07:31:52;;;;;;;1.80;1.70;;;;;;;19.89;72.79;99766.88;4992479;28;20290;-44
2023/09/21 07:34:19;;;;;;;3.88;1.80;;;;;;;19.91;72.74;99763.00;4984446;28;20185;-45
2023/09/21 07:36:46;;;;;;;2.17;1.77;;;;;;;20.15;72.47;99770.69;4988863;28;20200;-45
2023/09/21 07:39:13;;;;;;;3.03;1.73;;;;;;;20.45;71.59;99757.88;4989947;28;20672;-46
2023/09/21 07:41:40;;;;;;;3.45;1.70;;;;;;;20.27;70.88;99763.25;4991095;28;20589;-45
2023/09/21 07:44:08;;;;;;;4.05;1.88;;;;;;;20.09;70.81;99759.56;4988064;28;20189;-44
2023/09/21 07:46:37;;;;;;;4.22;1.92;;;;;;;20.16;70.82;99756.13;4983373;28;20181;-45
2023/09/21 07:49:07;;;;;;;4.70;1.90;;;;;;;20.53;69.95;99751.69;4988467;28;20686;-45
2023/09/21 07:51:33;;;;;;;2.95;1.70;;;;;;;20.76;69.26;99754.94;4991382;28;20208;-45
2023/09/21 07:54:00;;;;;;;1.85;1.73;;;;;;;20.95;69.39;99745.81;4988205;28;20248;-44
2023/09/21 07:56:27;;;;;;;2.20;1.67;;;;;;;21.03;68.65;99747.75;4985211;28;20299;-44
2023/09/21 07:58:52;;;;;;;3.92;1.85;;;;;;;21.26;68.06;99738.16;4980147;28;20236;-44
2023/09/21 08:01:18;;;;;;;2.03;1.50;;;;;;;21.30;67.69;99738.72;4983718;28;20221;-48
2023/09/21 08:03:43;;;;;;;4.38;1.75;;;;;;;21.33;67.10;99733.78;4986200;28;20195;-46
2023/09/21 08:06:09;;;;;;;2.58;1.90;;;;;;;21.28;66.30;99724.38;4986393;28;20647;-48
2023/09/21 08:08:34;;;;;;;5.63;2.10;;;;;;;21.53;66.50;99720.88;4983257;28;20662;-46
2023/09/21 08:11:00;;;;;;;2.92;2.00;;;;;;;21.46;66.09;99708.91;4977981;28;20263;-48
2023/09/21 08:13:26;;;;;;;3.45;1.90;;;;;;;21.50;65.71;99714.91;4989070;28;20191;-50
2023/09/21 08:15:54;;;;;;;3.03;1.98;;;;;;;21.59;65.45;99703.06;4983653;28;20188;-48
2023/09/21 08:18:20;;;;;;;4.50;1.88;;;;;;;21.82;65.56;99703.41;4980256;28;20189;-47
2023/09/21 08:20:45;;;;;;;4.20;2.03;;;;;;;21.96;64.22;99704.72;4986958;28;20759;-49
2023/09/21 08:23:11;;;;;;;4.40;1.92;;;;;;;21.90;64.17;99710.81;4985145;28;20184;-45
2023/09/21 08:25:37;;;;;;;3.17;1.92;;;;;;;21.99;63.67;99691.59;4988647;28;20188;-47
2023/09/21 08:28:03;;;;;;;4.55;1.75;;;;;;;22.14;63.36;99694.59;4983207;28;20649;-46
2023/09/21 08:30:30;;;;;;;1.88;1.75;;;;;;;22.14;62.72;99680.94;4986184;28;20169;-47
2023/09/21 08:32:57;;;;;;;5.63;1.92;;;;;;;22.37;62.82;99677.72;4978652;28;20217;-48
2023/09/21 08:35:22;;;;;;;1.75;1.55;;;;;;;22.37;62.13;99680.44;4984372;28;20207;-48
2023/09/21 08:37:50;;;;;;;3.53;1.88;;;;;;;22.65;61.73;99659.22;4989007;28;20380;-49
2023/09/21 08:40:16;;;;;;;4.50;1.60;;;;;;;22.44;61.22;99654.19;4981242;28;20323;-46
2023/09/21 08:42:43;;;;;;;3.08;1.98;;;;;;;22.36;61.96;99673.25;4982269;28;20213;-47
2023/09/21 08:45:11;;;;;;;5.57;2.17;;;;;;;22.46;61.54;99671.28;4982317;28;20177;-50
2023/09/21 08:47:49;;;;;;;5.00;1.90;;;;;;;22.46;60.79;99656.78;4983512;28;20182;-47
2023/09/21 08:50:15;;;;;;;2.88;2.10;;;;;;;22.33;61.52;99660.81;4984216;28;20185;-47
2023/09/21 08:52:45;;;;;;;7.15;2.08;;;;;;;22.94;60.79;99666.16;4985228;28;20271;-45
2023/09/21 08:55:14;;;;;;;2.42;1.80;;;;;;;22.70;60.08;99656.00;4990193;28;20723;-45
2023/09/21 08:57:40;;;;;;;4.82;1.98;;;;;;;22.90;60.13;99654.69;4988179;28;20220;-47
2023/09/21 09:00:08;;;;;;;2.05;1.70;;;;;;;23.00;59.59;99658.19;4987476;28;20228;-50
2023/09/21 09:02:37;;;;;;;2.95;1.90;;;;;;;23.05;59.64;99646.75;4986008;28;20264;-46
2023/09/21 09:05:07;;;;;;;3.22;1.65;;;;;;;22.99;59.68;99648.22;4988526;28;20181;-49
2023/09/21 09:07:39;;;;;;;2.45;1.80;;;;;;;23.26;59.80;99646.22;4988090;28;20726;-44
2023/09/21 09:10:13;;;;;;;2.42;1.80;;;;;;;23.19;59.06;99637.84;4986676;28;20652;-47
2023/09/21 09:12:39;;;;;;;5.40;2.00;;;;;;;23.37;58.97;99631.38;4991935;28;20555;-46
2023/09/21 09:15:08;;;;;;;3.22;2.00;;;;;;;23.71;59.22;99638.56;4982574;28;20204;-45
2023/09/21 09:17:35;;;;;;;1.73;1.63;;;;;;;23.59;58.49;99635.28;5005039;28;20197;-45
2023/09/21 09:20:03;;;;;;;3.40;1.92;;;;;;;23.88;57.56;99634.78;4986419;28;20203;-45
2023/09/21 09:22:34;;;;;;;2.72;1.63;;;;;;;24.00;57.93;99632.53;4988364;28;20235;-45
2023/09/21 09:25:09;;;;;;;5.57;1.90;;;;;;;23.69;58.28;99635.97;4985851;28;20177;-45
2023/09/21 09:27:35;;;;;;;5.03;1.95;;;;;;;23.43;58.05;99627.97;4987340;28;20185;-46
2023/09/21 09:30:03;;;;;;;2.97;1.88;;;;;;;23.49;58.09;99630.03;4990522;28;20220;-46
2023/09/21 09:32:37;;;;;;;4.88;1.80;;;;;;;23.74;57.58;99630.00;4993721;28;20208;-48
2023/09/21 09:35:27;;;;;;;2.20;1.75;;;;;;;23.85;56.58;99611.38;4976462;28;20181;-48
2023/09/21 09:37:53;;;;;;;2.00;1.60;;;;;;;24.08;56.89;99623.47;4983992;28;20268;-48
2023/09/21 09:40:23;;;;;;;1.65;1.52;;;;;;;24.21;55.66;99607.34;4987971;28;20276;-45
2023/09/21 09:42:51;;;;;;;3.03;1.90;;;;;;;23.93;55.82;99598.72;4988039;28;20693;-46
2023/09/21 09:45:27;;;;;;;4.85;1.85;;;;;;;23.63;56.47;99620.25;4988157;28;20208;-46
2023/09/21 09:47:57;;;;;;;3.08;2.03;;;;;;;23.45;56.29;99599.44;4989597;28;20173;-47
2023/09/21 09:50:31;;;;;;;2.90;1.88;;;;;;;23.08;57.08;99610.88;4986998;28;20569;-46
2023/09/21 09:53:05;;;;;;;3.60;2.15;;;;;;;22.91;57.51;99612.69;4988861;28;20192;-46
2023/09/21 09:55:33;;;;;;;2.08;1.80;;;;;;;23.51;56.77;99610.72;4991753;28;20181;-46
2023/09/21 09:58:06;;;;;;;3.50;2.00;;;;;;;23.75;56.53;99597.03;4984478;28;20560;-49
2023/09/21 10:00:31;;;;;;;3.60;1.67;;;;;;;24.20;55.96;99597.41;4988347;28;20295;-46
2023/09/21 10:02:58;;;;;;;3.58;1.88;;;;;;;23.91;55.81;99596.13;4986651;28;20335;-47
2023/09/21 10:05:28;;;;;;;6.05;2.15;;;;;;;23.68;55.46;99595.13;4987089;28;20189;-46
2023/09/21 10:08:03;;;;;;;3.10;1.63;;;;;;;24.28;55.62;99591.91;4987577;28;21253;-46
2023/09/21 10:10:32;;;;;;;3.03;2.00;;;;;;;24.34;56.12;99595.84;4988784;28;20179;-47
2023/09/21 10:12:58;;;;;;;3.47;1.73;;;;;;;24.77;54.99;99572.47;4986951;28;20205;-46
2023/09/21 10:15:24;;;;;;;3.40;1.65;;;;;;;24.87;53.95;99561.31;4987236;28;20623;-48
2023/09/21 10:17:54;;;;;;;2.90;1.70;;;;;;;24.27;54.00;99555.47;4988370;28;20181;-45
2023/09/21 10:20:32;;;;;;;1.98;1.73;;;;;;;23.95;55.13;99572.88;4987011;28;20204;-45
2023/09/21 10:23:05;;;;;;;2.67;1.80;;;;;;;23.78;55.74;99579.41;4989686;28;20694;-45
2023/09/21 10:25:45;;;;;;;3.15;1.75;;;;;;;23.78;56.25;99585.75;4991151;28;20580;-45
2023/09/21 10:28:29;;;;;;;2.88;1.90;;;;;;;23.99;55.41;99565.19;4988227;28;20686;-47
2023/09/21 10:30:55;;;;;;;4.50;2.15;;;;;;;23.97;56.28;99578.19;4986580;28;20184;-46
2023/09/21 10:33:22;;;;;;;2.80;1.67;;;;;;;23.77;56.19;99573.09;4988274;28;20189;-45
2023/09/21 10:35:52;;;;;;;2.58;1.63;;;;;;;23.80;55.95;99571.91;4988073;28;20172;-45
2023/09/21 10:38:17;;;;;;;9.32;1.65;;;;;;;23.83;56.58;99574.25;4986558;28;20207;-47
2023/09/21 10:40:43;;;;;;;2.58;1.88;;;;;;;24.20;55.82;99565.41;4989765;28;20235;-45
2023/09/21 10:43:37;;;;;;;3.47;1.75;;;;;;;24.61;55.16;99547.97;4991458;28;20181;-45
2023/09/21 10:46:06;;;;;;;2.92;1.65;;;;;;;24.62;54.78;99544.16;4989512;28;20190;-46
2023/09/21 10:48:32;;;;;;;3.20;1.67;;;;;;;24.80;55.06;99535.69;4989614;28;20196;-45
2023/09/21 10:50:57;;;;;;;5.25;1.83;;;;;;;24.93;54.87;99544.13;4987482;28;20177;-49
2023/09/21 10:53:23;;;;;;;5.65;1.90;;;;;;;24.55;54.51;99540.47;4989209;28;20193;-45
2023/09/21 10:55:49;;;;;;;3.90;1.70;;;;;;;24.51;54.53;99536.38;4993650;28;20255;-47
2023/09/21 10:58:18;;;;;;;1.85;1.55;;;;;;;24.53;53.96;99526.09;4990802;28;20256;-47
2023/09/21 11:00:44;;;;;;;2.53;1.85;;;;;;;24.87;53.14;99517.47;4992776;28;20706;-48
2023/09/21 11:03:11;;;;;;;4.95;1.80;;;;;;;25.06;53.33;99530.66;4985199;28;20186;-45
2023/09/21 11:05:38;;;;;;;2.45;1.58;;;;;;;25.23;53.09;99516.84;4991543;28;20185;-46
2023/09/21 11:08:03;;;;;;;2.83;1.63;;;;;;;25.56;52.27;99508.28;4990278;28;20276;-50
2023/09/21 11:10:30;;;;;;;2.42;1.55;;;;;;;25.38;52.15;99493.03;4988109;28;20256;-47
2023/09/21 11:12:56;;;;;;;3.65;1.90;;;;;;;25.48;51.80;99487.28;4985349;28;20221;-45
2023/09/21 11:15:22;;;;;;;2.95;1.80;;;;;;;25.32;51.97;99477.34;4989336;28;20169;-44
2023/09/21 11:17:47;;;;;;;2.55;1.75;;;;;;;24.97;51.65;99471.50;4988551;28;20178;-46
2023/09/21 11:20:17;;;;;;;3.17;1.98;;;;;;;24.68;52.48;99473.06;4985999;28;20209;-46
2023/09/21 11:22:44;;;;;;;6.85;1.98;;;;;;;24.70;52.29;99481.13;4989195;28;20192;-45
2023/09/21 11:25:12;;;;;;;5.85;1.77;;;;;;;24.70;52.45;99480.28;4984287;28;20250;-47
2023/09/21 11:27:40;;;;;;;4.05;1.67;;;;;;;24.71;52.27;99473.75;4987598;28;20663;-46
2023/09/21 11:30:07;;;;;;;4.45;1.83;;;;;;;24.62;52.35;99473.84;4985089;28;20254;-49
2023/09/21 11:32:46;;;;;;;3.63;1.70;;;;;;;25.03;52.01;99473.47;4989766;28;20204;-47